sensor_id;sensor_type;location;lat;lon;timestamp;temperature;humidity
59128;DHT22;44912;52.754;5.994;2023-01-19T00:00:45;3.90;99.90
59128;DHT22;44912;52.754;5.994;2023-01-19T00:03:10;3.90;99.90
59128;DHT22;44912;52.754;5.994;2023-01-19T00:05:41;3.80;99.90
59128;DHT22;44912;52.754;5.994;2023-01-19T00:08:08;3.80;99.90
59128;DHT22;44912;52.754;5.994;2023-01-19T00:10:41;3.80;99.90
59128;DHT22;44912;52.754;5.994;2023-01-19T00:13:07;3.80;99.90
59128;DHT22;44912;52.754;5.994;2023-01-19T00:15:33;3.70;99.90
59128;DHT22;44912;52.754;5.994;2023-01-19T00:17:58;3.70;99.90
59128;DHT22;44912;52.754;5.994;2023-01-19T00:20:24;3.60;99.90
59128;DHT22;44912;52.754;5.994;2023-01-19T00:22:49;3.60;99.90
59128;DHT22;44912;52.754;5.994;2023-01-19T00:25:16;3.50;99.90
59128;DHT22;44912;52.754;5.994;2023-01-19T00:27:41;3.40;99.90
59128;DHT22;44912;52.754;5.994;2023-01-19T00:30:16;3.40;99.90
59128;DHT22;44912;52.754;5.994;2023-01-19T00:32:42;3.40;99.90
59128;DHT22;44912;52.754;5.994;2023-01-19T00:35:07;3.30;99.90
59128;DHT22;44912;52.754;5.994;2023-01-19T00:37:33;3.30;99.90
59128;DHT22;44912;52.754;5.994;2023-01-19T00:39:59;3.40;99.90
59128;DHT22;44912;52.754;5.994;2023-01-19T00:42:24;3.40;99.90
59128;DHT22;44912;52.754;5.994;2023-01-19T00:45:10;3.40;99.90
59128;DHT22;44912;52.754;5.994;2023-01-19T00:47:36;3.30;99.90
59128;DHT22;44912;52.754;5.994;2023-01-19T00:50:04;3.40;99.90
59128;DHT22;44912;52.754;5.994;2023-01-19T00:52:30;3.30;99.90
59128;DHT22;44912;52.754;5.994;2023-01-19T00:54:55;3.30;99.90
59128;DHT22;44912;52.754;5.994;2023-01-19T00:57:21;3.30;99.90
59128;DHT22;44912;52.754;5.994;2023-01-19T00:59:46;3.30;99.90
59128;DHT22;44912;52.754;5.994;2023-01-19T01:02:12;3.30;99.90
59128;DHT22;44912;52.754;5.994;2023-01-19T01:04:38;3.30;99.90
59128;DHT22;44912;52.754;5.994;2023-01-19T01:07:03;3.30;99.90
59128;DHT22;44912;52.754;5.994;2023-01-19T01:09:29;3.20;99.90
59128;DHT22;44912;52.754;5.994;2023-01-19T01:11:55;3.20;99.90
59128;DHT22;44912;52.754;5.994;2023-01-19T01:14:22;3.20;99.90
59128;DHT22;44912;52.754;5.994;2023-01-19T01:16:48;3.20;99.90
59128;DHT22;44912;52.754;5.994;2023-01-19T01:19:14;3.10;99.90
59128;DHT22;44912;52.754;5.994;2023-01-19T01:21:40;3.10;99.90
59128;DHT22;44912;52.754;5.994;2023-01-19T01:24:06;3.10;99.90
59128;DHT22;44912;52.754;5.994;2023-01-19T01:26:32;3.10;99.90
59128;DHT22;44912;52.754;5.994;2023-01-19T01:28:57;3.20;99.90
59128;DHT22;44912;52.754;5.994;2023-01-19T01:31:23;3.20;99.90
59128;DHT22;44912;52.754;5.994;2023-01-19T01:33:48;3.20;99.90
59128;DHT22;44912;52.754;5.994;2023-01-19T01:36:14;3.20;99.90
59128;DHT22;44912;52.754;5.994;2023-01-19T01:38:40;3.20;99.90
59128;DHT22;44912;52.754;5.994;2023-01-19T01:41:06;3.30;99.90
59128;DHT22;44912;52.754;5.994;2023-01-19T01:43:47;3.30;99.90
59128;DHT22;44912;52.754;5.994;2023-01-19T01:46:14;3.40;99.90
59128;DHT22;44912;52.754;5.994;2023-01-19T01:48:47;3.40;99.90
59128;DHT22;44912;52.754;5.994;2023-01-19T01:51:21;3.40;99.90
59128;DHT22;44912;52.754;5.994;2023-01-19T01:54:13;3.40;99.90
59128;DHT22;44912;52.754;5.994;2023-01-19T01:56:47;3.50;99.90
59128;DHT22;44912;52.754;5.994;2023-01-19T01:59:19;3.50;99.90
59128;DHT22;44912;52.754;5.994;2023-01-19T02:02:03;3.50;99.90
59128;DHT22;44912;52.754;5.994;2023-01-19T02:04:55;3.50;99.90
59128;DHT22;44912;52.754;5.994;2023-01-19T02:07:31;3.60;99.90
59128;DHT22;44912;52.754;5.994;2023-01-19T02:10:17;3.60;99.90
59128;DHT22;44912;52.754;5.994;2023-01-19T02:13:02;3.60;99.90
59128;DHT22;44912;52.754;5.994;2023-01-19T02:15:50;3.60;99.90
59128;DHT22;44912;52.754;5.994;2023-01-19T02:18:18;3.60;99.90
59128;DHT22;44912;52.754;5.994;2023-01-19T02:20:52;3.70;99.90
59128;DHT22;44912;52.754;5.994;2023-01-19T02:23:29;3.70;99.90
59128;DHT22;44912;52.754;5.994;2023-01-19T02:25:58;3.70;99.90
59128;DHT22;44912;52.754;5.994;2023-01-19T02:28:25;3.70;99.90
59128;DHT22;44912;52.754;5.994;2023-01-19T02:30:51;3.80;99.90
59128;DHT22;44912;52.754;5.994;2023-01-19T02:33:17;3.80;99.90
59128;DHT22;44912;52.754;5.994;2023-01-19T02:35:43;3.90;99.90
59128;DHT22;44912;52.754;5.994;2023-01-19T02:38:10;3.80;99.90
59128;DHT22;44912;52.754;5.994;2023-01-19T02:40:39;3.80;99.90
59128;DHT22;44912;52.754;5.994;2023-01-19T02:43:07;3.80;99.90
59128;DHT22;44912;52.754;5.994;2023-01-19T02:45:33;3.80;99.90
59128;DHT22;44912;52.754;5.994;2023-01-19T02:48:00;3.80;99.90
59128;DHT22;44912;52.754;5.994;2023-01-19T02:50:36;3.80;99.90
59128;DHT22;44912;52.754;5.994;2023-01-19T02:56:01;3.90;99.90
59128;DHT22;44912;52.754;5.994;2023-01-19T02:58:44;3.90;99.90
59128;DHT22;44912;52.754;5.994;2023-01-19T03:01:21;3.80;99.90
59128;DHT22;44912;52.754;5.994;2023-01-19T03:04:10;3.90;99.90
59128;DHT22;44912;52.754;5.994;2023-01-19T03:06:46;4.00;99.90
59128;DHT22;44912;52.754;5.994;2023-01-19T03:09:46;4.20;99.90
59128;DHT22;44912;52.754;5.994;2023-01-19T03:12:37;4.30;99.90
59128;DHT22;44912;52.754;5.994;2023-01-19T03:15:14;4.30;99.90
59128;DHT22;44912;52.754;5.994;2023-01-19T03:17:44;4.40;99.90
59128;DHT22;44912;52.754;5.994;2023-01-19T03:20:13;4.30;99.90
59128;DHT22;44912;52.754;5.994;2023-01-19T03:22:43;4.30;99.90
59128;DHT22;44912;52.754;5.994;2023-01-19T03:25:11;4.30;99.90
59128;DHT22;44912;52.754;5.994;2023-01-19T03:27:41;4.40;99.90
59128;DHT22;44912;52.754;5.994;2023-01-19T03:30:13;4.40;99.90
59128;DHT22;44912;52.754;5.994;2023-01-19T03:32:43;4.40;99.90
59128;DHT22;44912;52.754;5.994;2023-01-19T03:35:13;4.50;99.90
59128;DHT22;44912;52.754;5.994;2023-01-19T03:37:42;4.50;99.90
59128;DHT22;44912;52.754;5.994;2023-01-19T03:40:10;4.50;99.90
59128;DHT22;44912;52.754;5.994;2023-01-19T03:42:36;4.60;99.90
59128;DHT22;44912;52.754;5.994;2023-01-19T03:45:03;4.60;99.90
59128;DHT22;44912;52.754;5.994;2023-01-19T03:47:29;4.70;99.90
59128;DHT22;44912;52.754;5.994;2023-01-19T03:49:55;4.60;99.90
59128;DHT22;44912;52.754;5.994;2023-01-19T03:52:27;4.60;99.90
59128;DHT22;44912;52.754;5.994;2023-01-19T03:54:52;4.60;99.90
59128;DHT22;44912;52.754;5.994;2023-01-19T03:57:18;4.50;99.90
59128;DHT22;44912;52.754;5.994;2023-01-19T03:59:43;4.50;99.90
59128;DHT22;44912;52.754;5.994;2023-01-19T04:02:09;4.50;99.90
59128;DHT22;44912;52.754;5.994;2023-01-19T04:04:34;4.50;99.90
59128;DHT22;44912;52.754;5.994;2023-01-19T04:07:00;4.60;99.90
59128;DHT22;44912;52.754;5.994;2023-01-19T04:09:26;4.60;99.90
59128;DHT22;44912;52.754;5.994;2023-01-19T04:11:51;4.80;99.90
59128;DHT22;44912;52.754;5.994;2023-01-19T04:14:17;4.80;99.90
59128;DHT22;44912;52.754;5.994;2023-01-19T04:16:42;4.90;99.90
59128;DHT22;44912;52.754;5.994;2023-01-19T04:19:08;4.90;99.90
59128;DHT22;44912;52.754;5.994;2023-01-19T04:21:33;5.00;99.90
59128;DHT22;44912;52.754;5.994;2023-01-19T04:23:59;5.00;99.90
59128;DHT22;44912;52.754;5.994;2023-01-19T04:26:25;5.00;99.90
59128;DHT22;44912;52.754;5.994;2023-01-19T04:28:50;5.00;99.90
59128;DHT22;44912;52.754;5.994;2023-01-19T04:31:16;5.10;99.90
59128;DHT22;44912;52.754;5.994;2023-01-19T04:33:43;5.10;99.90
59128;DHT22;44912;52.754;5.994;2023-01-19T04:36:09;5.10;99.90
59128;DHT22;44912;52.754;5.994;2023-01-19T04:38:34;5.20;99.90
59128;DHT22;44912;52.754;5.994;2023-01-19T04:41:00;5.20;99.90
59128;DHT22;44912;52.754;5.994;2023-01-19T04:43:25;5.20;99.90
59128;DHT22;44912;52.754;5.994;2023-01-19T04:45:51;5.30;99.90
59128;DHT22;44912;52.754;5.994;2023-01-19T04:48:17;5.20;99.90
59128;DHT22;44912;52.754;5.994;2023-01-19T04:50:43;5.20;99.90
59128;DHT22;44912;52.754;5.994;2023-01-19T04:53:09;5.10;99.90
59128;DHT22;44912;52.754;5.994;2023-01-19T04:55:36;5.10;99.90
59128;DHT22;44912;52.754;5.994;2023-01-19T04:58:02;5.00;99.90
59128;DHT22;44912;52.754;5.994;2023-01-19T05:00:27;5.00;99.90
59128;DHT22;44912;52.754;5.994;2023-01-19T05:02:53;5.00;99.90
59128;DHT22;44912;52.754;5.994;2023-01-19T05:05:19;5.00;99.90
59128;DHT22;44912;52.754;5.994;2023-01-19T05:07:44;5.00;99.90
59128;DHT22;44912;52.754;5.994;2023-01-19T05:10:10;4.90;99.90
59128;DHT22;44912;52.754;5.994;2023-01-19T05:12:36;4.90;99.90
59128;DHT22;44912;52.754;5.994;2023-01-19T05:15:02;4.90;99.90
59128;DHT22;44912;52.754;5.994;2023-01-19T05:17:28;4.90;99.90
59128;DHT22;44912;52.754;5.994;2023-01-19T05:19:54;4.80;99.90
59128;DHT22;44912;52.754;5.994;2023-01-19T05:22:20;4.80;99.90
59128;DHT22;44912;52.754;5.994;2023-01-19T05:24:45;4.80;99.90
59128;DHT22;44912;52.754;5.994;2023-01-19T05:27:11;4.70;99.90
59128;DHT22;44912;52.754;5.994;2023-01-19T05:29:36;4.80;99.90
59128;DHT22;44912;52.754;5.994;2023-01-19T05:32:02;4.80;99.90
59128;DHT22;44912;52.754;5.994;2023-01-19T05:34:28;4.80;99.90
59128;DHT22;44912;52.754;5.994;2023-01-19T05:36:54;4.80;99.90
59128;DHT22;44912;52.754;5.994;2023-01-19T05:39:19;4.80;99.90
59128;DHT22;44912;52.754;5.994;2023-01-19T05:41:45;4.80;99.90
59128;DHT22;44912;52.754;5.994;2023-01-19T05:44:11;4.90;99.90
59128;DHT22;44912;52.754;5.994;2023-01-19T05:46:37;4.90;99.90
59128;DHT22;44912;52.754;5.994;2023-01-19T05:49:03;4.80;99.90
59128;DHT22;44912;52.754;5.994;2023-01-19T05:51:35;4.80;99.90
59128;DHT22;44912;52.754;5.994;2023-01-19T05:54:11;4.80;99.90
59128;DHT22;44912;52.754;5.994;2023-01-19T05:56:37;4.80;99.90
59128;DHT22;44912;52.754;5.994;2023-01-19T05:59:03;4.80;99.90
59128;DHT22;44912;52.754;5.994;2023-01-19T06:01:29;4.80;99.90
59128;DHT22;44912;52.754;5.994;2023-01-19T06:03:54;4.80;99.90
59128;DHT22;44912;52.754;5.994;2023-01-19T06:06:20;4.80;99.90
59128;DHT22;44912;52.754;5.994;2023-01-19T06:08:46;4.80;99.90
59128;DHT22;44912;52.754;5.994;2023-01-19T06:11:12;4.80;99.90
59128;DHT22;44912;52.754;5.994;2023-01-19T06:13:37;4.80;99.90
59128;DHT22;44912;52.754;5.994;2023-01-19T06:16:06;4.80;99.90
59128;DHT22;44912;52.754;5.994;2023-01-19T06:18:32;4.80;99.90
59128;DHT22;44912;52.754;5.994;2023-01-19T06:20:58;4.80;99.90
59128;DHT22;44912;52.754;5.994;2023-01-19T06:23:29;4.80;99.90
59128;DHT22;44912;52.754;5.994;2023-01-19T06:25:55;4.70;99.90
59128;DHT22;44912;52.754;5.994;2023-01-19T06:28:20;4.60;99.90
59128;DHT22;44912;52.754;5.994;2023-01-19T06:30:51;4.60;99.90
59128;DHT22;44912;52.754;5.994;2023-01-19T06:33:17;4.50;99.90
59128;DHT22;44912;52.754;5.994;2023-01-19T06:35:44;4.50;99.90
59128;DHT22;44912;52.754;5.994;2023-01-19T06:38:09;4.50;99.90
59128;DHT22;44912;52.754;5.994;2023-01-19T06:40:35;4.40;99.90
59128;DHT22;44912;52.754;5.994;2023-01-19T06:43:01;4.40;99.90
59128;DHT22;44912;52.754;5.994;2023-01-19T06:45:26;4.50;99.90
59128;DHT22;44912;52.754;5.994;2023-01-19T06:47:52;4.50;99.90
59128;DHT22;44912;52.754;5.994;2023-01-19T06:50:17;4.60;99.90
59128;DHT22;44912;52.754;5.994;2023-01-19T06:52:43;4.50;99.90
59128;DHT22;44912;52.754;5.994;2023-01-19T06:55:09;4.50;99.90
59128;DHT22;44912;52.754;5.994;2023-01-19T06:57:36;4.40;99.90
59128;DHT22;44912;52.754;5.994;2023-01-19T07:00:04;4.40;99.90
59128;DHT22;44912;52.754;5.994;2023-01-19T07:02:36;4.30;99.90
59128;DHT22;44912;52.754;5.994;2023-01-19T07:05:02;4.30;99.90
59128;DHT22;44912;52.754;5.994;2023-01-19T07:07:27;4.20;99.90
59128;DHT22;44912;52.754;5.994;2023-01-19T07:09:53;4.30;99.90
59128;DHT22;44912;52.754;5.994;2023-01-19T07:12:18;4.30;99.90
59128;DHT22;44912;52.754;5.994;2023-01-19T07:14:44;4.20;99.90
59128;DHT22;44912;52.754;5.994;2023-01-19T07:17:11;4.30;99.90
59128;DHT22;44912;52.754;5.994;2023-01-19T07:19:36;4.30;99.90
59128;DHT22;44912;52.754;5.994;2023-01-19T07:22:02;4.40;99.90
59128;DHT22;44912;52.754;5.994;2023-01-19T07:24:28;4.40;99.90
59128;DHT22;44912;52.754;5.994;2023-01-19T07:26:55;4.40;99.90
59128;DHT22;44912;52.754;5.994;2023-01-19T07:29:21;4.50;99.90
59128;DHT22;44912;52.754;5.994;2023-01-19T07:31:46;4.50;99.90
59128;DHT22;44912;52.754;5.994;2023-01-19T07:34:13;4.50;99.90
59128;DHT22;44912;52.754;5.994;2023-01-19T07:36:39;4.50;99.90
59128;DHT22;44912;52.754;5.994;2023-01-19T07:39:05;4.50;99.90
59128;DHT22;44912;52.754;5.994;2023-01-19T07:41:30;4.40;99.90
59128;DHT22;44912;52.754;5.994;2023-01-19T07:43:56;4.40;99.90
59128;DHT22;44912;52.754;5.994;2023-01-19T07:46:22;4.40;99.90
59128;DHT22;44912;52.754;5.994;2023-01-19T07:48:47;4.40;99.90
59128;DHT22;44912;52.754;5.994;2023-01-19T07:51:13;4.40;99.90
59128;DHT22;44912;52.754;5.994;2023-01-19T07:53:43;4.50;99.90
59128;DHT22;44912;52.754;5.994;2023-01-19T07:56:09;4.50;99.90
59128;DHT22;44912;52.754;5.994;2023-01-19T07:58:35;4.50;99.90
59128;DHT22;44912;52.754;5.994;2023-01-19T08:01:08;4.40;99.90
59128;DHT22;44912;52.754;5.994;2023-01-19T08:03:34;4.50;99.90
59128;DHT22;44912;52.754;5.994;2023-01-19T08:05:59;4.40;99.90
59128;DHT22;44912;52.754;5.994;2023-01-19T08:08:28;4.40;99.90
59128;DHT22;44912;52.754;5.994;2023-01-19T08:10:54;4.50;99.90
59128;DHT22;44912;52.754;5.994;2023-01-19T08:13:19;4.50;99.90
59128;DHT22;44912;52.754;5.994;2023-01-19T08:15:48;4.50;99.90
59128;DHT22;44912;52.754;5.994;2023-01-19T08:18:14;4.50;99.90
59128;DHT22;44912;52.754;5.994;2023-01-19T08:20:40;4.50;99.90
59128;DHT22;44912;52.754;5.994;2023-01-19T08:23:06;4.40;99.90
59128;DHT22;44912;52.754;5.994;2023-01-19T08:25:35;4.30;99.90
59128;DHT22;44912;52.754;5.994;2023-01-19T08:28:02;4.30;99.90
59128;DHT22;44912;52.754;5.994;2023-01-19T08:30:28;4.20;99.90
59128;DHT22;44912;52.754;5.994;2023-01-19T08:32:54;4.20;99.90
59128;DHT22;44912;52.754;5.994;2023-01-19T08:35:31;4.20;99.90
59128;DHT22;44912;52.754;5.994;2023-01-19T08:37:57;4.20;99.90
59128;DHT22;44912;52.754;5.994;2023-01-19T08:40:26;4.30;99.90
59128;DHT22;44912;52.754;5.994;2023-01-19T08:42:52;4.30;99.90
59128;DHT22;44912;52.754;5.994;2023-01-19T08:45:23;4.30;99.90
59128;DHT22;44912;52.754;5.994;2023-01-19T08:47:49;4.40;99.90
59128;DHT22;44912;52.754;5.994;2023-01-19T08:50:15;4.40;99.90
59128;DHT22;44912;52.754;5.994;2023-01-19T08:52:40;4.50;99.90
59128;DHT22;44912;52.754;5.994;2023-01-19T08:55:07;4.50;99.90
59128;DHT22;44912;52.754;5.994;2023-01-19T08:57:32;4.50;99.90
59128;DHT22;44912;52.754;5.994;2023-01-19T08:59:58;4.60;99.90
59128;DHT22;44912;52.754;5.994;2023-01-19T09:02:23;4.60;99.90
59128;DHT22;44912;52.754;5.994;2023-01-19T09:04:49;4.60;99.90
59128;DHT22;44912;52.754;5.994;2023-01-19T09:07:14;4.60;99.90
59128;DHT22;44912;52.754;5.994;2023-01-19T09:09:41;4.60;99.90
59128;DHT22;44912;52.754;5.994;2023-01-19T09:12:07;4.60;99.90
59128;DHT22;44912;52.754;5.994;2023-01-19T09:14:33;4.60;99.90
59128;DHT22;44912;52.754;5.994;2023-01-19T09:16:58;4.60;99.90
59128;DHT22;44912;52.754;5.994;2023-01-19T09:19:24;4.60;99.90
59128;DHT22;44912;52.754;5.994;2023-01-19T09:21:51;4.60;99.90
59128;DHT22;44912;52.754;5.994;2023-01-19T09:24:17;4.60;99.90
59128;DHT22;44912;52.754;5.994;2023-01-19T09:26:42;4.70;99.90
59128;DHT22;44912;52.754;5.994;2023-01-19T09:29:08;4.70;99.90
59128;DHT22;44912;52.754;5.994;2023-01-19T09:31:34;4.70;99.90
59128;DHT22;44912;52.754;5.994;2023-01-19T09:33:59;4.80;99.90
59128;DHT22;44912;52.754;5.994;2023-01-19T09:36:25;4.80;99.90
59128;DHT22;44912;52.754;5.994;2023-01-19T09:38:50;4.90;99.90
59128;DHT22;44912;52.754;5.994;2023-01-19T09:41:21;5.00;99.90
59128;DHT22;44912;52.754;5.994;2023-01-19T09:43:58;5.10;99.90
59128;DHT22;44912;52.754;5.994;2023-01-19T09:46:36;5.20;99.90
59128;DHT22;44912;52.754;5.994;2023-01-19T09:49:16;5.20;99.90
59128;DHT22;44912;52.754;5.994;2023-01-19T09:51:45;5.30;99.90
59128;DHT22;44912;52.754;5.994;2023-01-19T09:54:15;5.30;99.90
59128;DHT22;44912;52.754;5.994;2023-01-19T09:56:42;5.40;99.90
59128;DHT22;44912;52.754;5.994;2023-01-19T09:59:27;5.40;99.90
59128;DHT22;44912;52.754;5.994;2023-01-19T10:04:43;5.50;99.90
59128;DHT22;44912;52.754;5.994;2023-01-19T10:07:32;5.60;99.90
59128;DHT22;44912;52.754;5.994;2023-01-19T10:10:28;5.60;99.90
59128;DHT22;44912;52.754;5.994;2023-01-19T10:18:41;5.80;99.90
59128;DHT22;44912;52.754;5.994;2023-01-19T10:21:15;5.80;99.90
59128;DHT22;44912;52.754;5.994;2023-01-19T10:26:25;5.90;99.90
59128;DHT22;44912;52.754;5.994;2023-01-19T10:28:58;5.90;99.90
59128;DHT22;44912;52.754;5.994;2023-01-19T10:31:26;5.90;99.90
59128;DHT22;44912;52.754;5.994;2023-01-19T10:33:52;5.90;99.90
59128;DHT22;44912;52.754;5.994;2023-01-19T10:36:34;5.90;99.90
59128;DHT22;44912;52.754;5.994;2023-01-19T10:39:00;6.00;99.90
59128;DHT22;44912;52.754;5.994;2023-01-19T10:44:08;6.00;99.90
59128;DHT22;44912;52.754;5.994;2023-01-19T10:46:45;6.00;99.90
59128;DHT22;44912;52.754;5.994;2023-01-19T10:49:36;6.10;99.90
59128;DHT22;44912;52.754;5.994;2023-01-19T10:52:06;6.10;99.90
59128;DHT22;44912;52.754;5.994;2023-01-19T10:54:34;6.10;99.90
59128;DHT22;44912;52.754;5.994;2023-01-19T10:57:08;6.10;99.90
59128;DHT22;44912;52.754;5.994;2023-01-19T10:59:46;6.10;99.90
59128;DHT22;44912;52.754;5.994;2023-01-19T11:02:27;6.10;99.90
59128;DHT22;44912;52.754;5.994;2023-01-19T11:05:02;6.20;99.90
59128;DHT22;44912;52.754;5.994;2023-01-19T11:07:45;6.10;99.90
59128;DHT22;44912;52.754;5.994;2023-01-19T11:13:05;6.20;99.90
59128;DHT22;44912;52.754;5.994;2023-01-19T11:15:43;6.10;99.90
59128;DHT22;44912;52.754;5.994;2023-01-19T11:18:29;6.20;99.90
59128;DHT22;44912;52.754;5.994;2023-01-19T11:21:03;6.20;99.90
59128;DHT22;44912;52.754;5.994;2023-01-19T11:23:32;6.20;99.90
59128;DHT22;44912;52.754;5.994;2023-01-19T11:26:00;6.10;99.90
59128;DHT22;44912;52.754;5.994;2023-01-19T11:28:33;6.20;99.90
59128;DHT22;44912;52.754;5.994;2023-01-19T11:31:01;6.10;99.90
59128;DHT22;44912;52.754;5.994;2023-01-19T11:33:41;6.20;99.90
59128;DHT22;44912;52.754;5.994;2023-01-19T11:36:19;6.20;99.90
59128;DHT22;44912;52.754;5.994;2023-01-19T11:38:50;6.20;99.90
59128;DHT22;44912;52.754;5.994;2023-01-19T11:41:22;6.20;99.90
59128;DHT22;44912;52.754;5.994;2023-01-19T11:44:12;6.30;99.90
59128;DHT22;44912;52.754;5.994;2023-01-19T11:46:41;6.30;99.90
59128;DHT22;44912;52.754;5.994;2023-01-19T11:49:18;6.40;99.90
59128;DHT22;44912;52.754;5.994;2023-01-19T11:51:53;6.30;99.90
59128;DHT22;44912;52.754;5.994;2023-01-19T11:54:25;6.30;99.90
59128;DHT22;44912;52.754;5.994;2023-01-19T11:56:54;6.20;99.90
59128;DHT22;44912;52.754;5.994;2023-01-19T11:59:22;6.20;99.90
59128;DHT22;44912;52.754;5.994;2023-01-19T12:01:57;6.30;99.90
59128;DHT22;44912;52.754;5.994;2023-01-19T12:04:29;6.20;99.90
59128;DHT22;44912;52.754;5.994;2023-01-19T12:06:56;6.20;99.90
59128;DHT22;44912;52.754;5.994;2023-01-19T12:09:25;6.20;99.90
59128;DHT22;44912;52.754;5.994;2023-01-19T12:12:06;6.10;99.90
59128;DHT22;44912;52.754;5.994;2023-01-19T12:14:40;6.20;99.90
59128;DHT22;44912;52.754;5.994;2023-01-19T12:17:13;6.20;99.90
59128;DHT22;44912;52.754;5.994;2023-01-19T12:22:48;6.30;99.90
59128;DHT22;44912;52.754;5.994;2023-01-19T12:25:21;6.20;99.90
59128;DHT22;44912;52.754;5.994;2023-01-19T12:27:47;6.30;99.90
59128;DHT22;44912;52.754;5.994;2023-01-19T12:30:20;6.30;99.90
59128;DHT22;44912;52.754;5.994;2023-01-19T12:32:47;6.30;99.90
59128;DHT22;44912;52.754;5.994;2023-01-19T12:38:32;6.20;99.90
59128;DHT22;44912;52.754;5.994;2023-01-19T12:41:20;6.20;99.90
59128;DHT22;44912;52.754;5.994;2023-01-19T12:46:36;6.20;99.90
59128;DHT22;44912;52.754;5.994;2023-01-19T12:49:04;6.10;99.90
59128;DHT22;44912;52.754;5.994;2023-01-19T12:51:31;6.10;99.90
59128;DHT22;44912;52.754;5.994;2023-01-19T12:53:57;6.10;99.90
59128;DHT22;44912;52.754;5.994;2023-01-19T12:56:32;6.10;99.90
59128;DHT22;44912;52.754;5.994;2023-01-19T12:58:58;6.20;99.90
59128;DHT22;44912;52.754;5.994;2023-01-19T13:01:24;6.20;99.90
59128;DHT22;44912;52.754;5.994;2023-01-19T13:04:28;6.20;99.90
59128;DHT22;44912;52.754;5.994;2023-01-19T13:09:38;6.10;99.90
59128;DHT22;44912;52.754;5.994;2023-01-19T13:14:43;6.10;99.90
59128;DHT22;44912;52.754;5.994;2023-01-19T13:19:43;5.90;99.90
59128;DHT22;44912;52.754;5.994;2023-01-19T13:25:12;5.80;99.90
59128;DHT22;44912;52.754;5.994;2023-01-19T13:27:46;5.80;99.90
59128;DHT22;44912;52.754;5.994;2023-01-19T13:30:15;5.70;99.90
59128;DHT22;44912;52.754;5.994;2023-01-19T13:32:42;5.80;99.90
59128;DHT22;44912;52.754;5.994;2023-01-19T13:35:13;5.90;99.90
59128;DHT22;44912;52.754;5.994;2023-01-19T13:37:42;6.00;99.90
59128;DHT22;44912;52.754;5.994;2023-01-19T13:40:35;6.10;99.90
59128;DHT22;44912;52.754;5.994;2023-01-19T13:43:10;6.20;99.90
59128;DHT22;44912;52.754;5.994;2023-01-19T13:45:39;6.20;99.90
59128;DHT22;44912;52.754;5.994;2023-01-19T13:48:07;6.20;99.90
59128;DHT22;44912;52.754;5.994;2023-01-19T13:50:37;6.10;99.90
59128;DHT22;44912;52.754;5.994;2023-01-19T13:53:20;6.10;99.90
59128;DHT22;44912;52.754;5.994;2023-01-19T13:55:50;6.10;99.90
59128;DHT22;44912;52.754;5.994;2023-01-19T13:58:29;6.00;99.90
59128;DHT22;44912;52.754;5.994;2023-01-19T14:00:56;6.10;99.90
59128;DHT22;44912;52.754;5.994;2023-01-19T14:03:23;6.00;99.90
59128;DHT22;44912;52.754;5.994;2023-01-19T14:05:50;6.00;99.90
59128;DHT22;44912;52.754;5.994;2023-01-19T14:08:17;6.10;99.90
59128;DHT22;44912;52.754;5.994;2023-01-19T14:10:59;6.10;99.90
59128;DHT22;44912;52.754;5.994;2023-01-19T14:13:31;6.20;99.90
59128;DHT22;44912;52.754;5.994;2023-01-19T14:16:00;6.30;99.90
59128;DHT22;44912;52.754;5.994;2023-01-19T14:18:30;6.30;99.90
59128;DHT22;44912;52.754;5.994;2023-01-19T14:20:57;6.40;99.90
59128;DHT22;44912;52.754;5.994;2023-01-19T14:26:46;6.60;99.90
59128;DHT22;44912;52.754;5.994;2023-01-19T14:29:30;6.70;99.90
59128;DHT22;44912;52.754;5.994;2023-01-19T14:34:33;6.80;99.90
59128;DHT22;44912;52.754;5.994;2023-01-19T14:37:00;6.80;99.90
59128;DHT22;44912;52.754;5.994;2023-01-19T14:39:31;6.80;99.90
59128;DHT22;44912;52.754;5.994;2023-01-19T14:41:59;6.70;99.90
59128;DHT22;44912;52.754;5.994;2023-01-19T14:44:35;6.60;99.90
59128;DHT22;44912;52.754;5.994;2023-01-19T14:47:01;6.50;99.90
59128;DHT22;44912;52.754;5.994;2023-01-19T14:49:34;6.40;99.90
59128;DHT22;44912;52.754;5.994;2023-01-19T14:52:03;6.20;99.90
59128;DHT22;44912;52.754;5.994;2023-01-19T14:54:35;6.10;99.90
59128;DHT22;44912;52.754;5.994;2023-01-19T14:57:03;6.00;99.90
59128;DHT22;44912;52.754;5.994;2023-01-19T14:59:31;5.90;99.90
59128;DHT22;44912;52.754;5.994;2023-01-19T15:01:56;5.90;99.90
59128;DHT22;44912;52.754;5.994;2023-01-19T15:04:24;5.80;99.90
59128;DHT22;44912;52.754;5.994;2023-01-19T15:06:51;5.70;99.90
59128;DHT22;44912;52.754;5.994;2023-01-19T15:09:16;5.60;99.90
59128;DHT22;44912;52.754;5.994;2023-01-19T15:11:43;5.50;99.90
59128;DHT22;44912;52.754;5.994;2023-01-19T15:14:13;5.40;99.90
59128;DHT22;44912;52.754;5.994;2023-01-19T15:16:40;5.30;99.90
59128;DHT22;44912;52.754;5.994;2023-01-19T15:19:10;5.20;99.90
59128;DHT22;44912;52.754;5.994;2023-01-19T15:21:35;5.20;99.90
59128;DHT22;44912;52.754;5.994;2023-01-19T15:24:05;5.10;99.90
59128;DHT22;44912;52.754;5.994;2023-01-19T15:26:30;5.10;99.90
59128;DHT22;44912;52.754;5.994;2023-01-19T15:28:56;5.10;99.90
59128;DHT22;44912;52.754;5.994;2023-01-19T15:31:22;5.00;99.90
59128;DHT22;44912;52.754;5.994;2023-01-19T15:33:49;5.00;99.90
59128;DHT22;44912;52.754;5.994;2023-01-19T15:36:17;4.90;99.90
59128;DHT22;44912;52.754;5.994;2023-01-19T15:38:43;4.80;99.90
59128;DHT22;44912;52.754;5.994;2023-01-19T15:41:14;4.80;99.90
59128;DHT22;44912;52.754;5.994;2023-01-19T15:43:43;4.70;99.90
59128;DHT22;44912;52.754;5.994;2023-01-19T15:46:10;4.60;99.90
59128;DHT22;44912;52.754;5.994;2023-01-19T15:48:37;4.50;99.90
59128;DHT22;44912;52.754;5.994;2023-01-19T15:51:03;4.40;99.90
59128;DHT22;44912;52.754;5.994;2023-01-19T15:53:28;4.40;99.90
59128;DHT22;44912;52.754;5.994;2023-01-19T15:55:54;4.30;99.90
59128;DHT22;44912;52.754;5.994;2023-01-19T15:58:22;4.30;99.90
59128;DHT22;44912;52.754;5.994;2023-01-19T16:00:56;4.20;99.90
59128;DHT22;44912;52.754;5.994;2023-01-19T16:03:22;4.20;99.90
59128;DHT22;44912;52.754;5.994;2023-01-19T16:05:48;4.20;99.90
59128;DHT22;44912;52.754;5.994;2023-01-19T16:08:13;4.10;99.90
59128;DHT22;44912;52.754;5.994;2023-01-19T16:10:40;4.10;99.90
59128;DHT22;44912;52.754;5.994;2023-01-19T16:13:07;4.00;99.90
59128;DHT22;44912;52.754;5.994;2023-01-19T16:15:36;3.90;99.90
59128;DHT22;44912;52.754;5.994;2023-01-19T16:18:03;3.90;99.90
59128;DHT22;44912;52.754;5.994;2023-01-19T16:20:29;3.90;99.90
59128;DHT22;44912;52.754;5.994;2023-01-19T16:22:54;3.80;99.90
59128;DHT22;44912;52.754;5.994;2023-01-19T16:25:20;3.80;99.90
59128;DHT22;44912;52.754;5.994;2023-01-19T16:27:47;3.80;99.90
59128;DHT22;44912;52.754;5.994;2023-01-19T16:30:13;3.80;99.90
59128;DHT22;44912;52.754;5.994;2023-01-19T16:32:40;3.70;99.90
59128;DHT22;44912;52.754;5.994;2023-01-19T16:35:06;3.70;99.90
59128;DHT22;44912;52.754;5.994;2023-01-19T16:37:32;3.70;99.90
59128;DHT22;44912;52.754;5.994;2023-01-19T16:39:58;3.60;99.90
59128;DHT22;44912;52.754;5.994;2023-01-19T16:42:24;3.60;99.90